createdAt,value
2019-03-23T00:01:15.977Z,10.17
2019-03-23T00:03:52.612Z,10.10
2019-03-23T00:06:30.844Z,10.12
2019-03-23T00:08:58.570Z,10.11
2019-03-23T00:11:29.821Z,10.09
2019-03-23T00:14:01.172Z,10.10
2019-03-23T00:16:33.347Z,10.09
2019-03-23T00:19:05.129Z,10.13
2019-03-23T00:21:44.847Z,10.03
2019-03-23T00:24:19.821Z,10.02
2019-03-23T00:26:52.326Z,9.81
2019-03-23T00:29:24.782Z,9.72
2019-03-23T00:32:05.157Z,9.57
2019-03-23T00:34:36.806Z,9.67
2019-03-23T00:37:09.013Z,9.53
2019-03-23T00:39:44.396Z,9.58
2019-03-23T00:42:23.526Z,9.51
2019-03-23T00:45:24.525Z,9.48
2019-03-23T00:47:55.767Z,9.52
2019-03-23T00:50:27.090Z,9.58
2019-03-23T00:53:03.800Z,9.92
2019-03-23T00:55:35.112Z,10.03
2019-03-23T00:58:10.979Z,10.26
2019-03-23T01:00:42.395Z,10.46
2019-03-23T01:03:13.575Z,10.57
2019-03-23T01:05:44.960Z,10.67
2019-03-23T01:08:16.451Z,10.77
2019-03-23T01:10:47.722Z,10.66
2019-03-23T01:13:22.328Z,10.73
2019-03-23T01:16:03.705Z,10.66
2019-03-23T01:18:34.954Z,10.66
2019-03-23T01:21:07.338Z,10.69
2019-03-23T01:23:38.702Z,10.53
2019-03-23T01:26:10.113Z,10.34
2019-03-23T01:28:41.497Z,10.39
2019-03-23T01:31:12.771Z,10.18
2019-03-23T01:33:44.182Z,10.15
2019-03-23T01:36:15.929Z,10.08
2019-03-23T01:38:47.212Z,10.06
2019-03-23T01:41:18.524Z,9.93
2019-03-23T01:43:49.783Z,9.87
2019-03-23T01:46:21.286Z,9.80
2019-03-23T01:48:52.681Z,9.72
2019-03-23T01:51:30.783Z,9.70
2019-03-23T01:54:03.163Z,9.56
2019-03-23T01:56:36.386Z,9.25
2019-03-23T01:59:07.854Z,9.03
2019-03-23T02:01:51.637Z,8.79
2019-03-23T02:04:24.070Z,8.66
2019-03-23T02:07:01.337Z,8.45
2019-03-23T02:09:39.828Z,8.36
2019-03-23T02:12:12.346Z,8.28
2019-03-23T02:14:49.571Z,8.14
2019-03-23T02:17:27.129Z,8.25
2019-03-23T02:19:58.496Z,8.34
2019-03-23T02:22:31.388Z,8.25
2019-03-23T02:25:09.093Z,8.32
2019-03-23T02:27:55.861Z,8.37
2019-03-23T02:30:27.184Z,8.36
2019-03-23T02:32:58.445Z,8.22
2019-03-23T02:35:36.110Z,8.26
2019-03-23T02:38:18.497Z,8.18
2019-03-23T02:40:53.244Z,8.14
2019-03-23T02:43:36.683Z,8.09
2019-03-23T02:46:08.152Z,8.12
2019-03-23T02:48:39.478Z,8.05
2019-03-23T02:51:16.975Z,8.04
2019-03-23T02:53:48.527Z,8.13
2019-03-23T02:56:24.241Z,8.10
2019-03-23T02:58:59.772Z,8.19
2019-03-23T03:01:32.116Z,8.28
2019-03-23T03:04:05.610Z,8.25
2019-03-23T03:06:40.504Z,8.29
2019-03-23T03:09:11.887Z,8.48
2019-03-23T03:11:44.306Z,8.32
2019-03-23T03:14:15.637Z,8.25
2019-03-23T03:16:47.004Z,8.31
2019-03-23T03:19:18.211Z,8.30
2019-03-23T03:21:53.449Z,8.32
2019-03-23T03:24:24.940Z,8.07
2019-03-23T03:26:56.346Z,8.26
2019-03-23T03:29:27.611Z,8.42
2019-03-23T03:32:03.033Z,8.43
2019-03-23T03:34:34.316Z,8.41
2019-03-23T03:37:05.913Z,8.54
2019-03-23T03:39:37.068Z,8.67
2019-03-23T03:42:08.487Z,8.71
2019-03-23T03:44:39.565Z,8.72
2019-03-23T03:47:11.141Z,8.66
2019-03-23T03:49:44.452Z,8.67
2019-03-23T03:52:23.254Z,8.68
2019-03-23T03:55:10.780Z,8.62
2019-03-23T03:57:42.296Z,8.63
2019-03-23T04:00:18.914Z,8.74
2019-03-23T04:02:55.689Z,8.67
2019-03-23T04:05:33.948Z,8.60
2019-03-23T04:08:11.559Z,8.49
2019-03-23T04:10:41.385Z,8.53
2019-03-23T04:13:12.730Z,8.61
2019-03-23T04:15:43.945Z,8.56
2019-03-23T04:18:26.486Z,8.59
2019-03-23T04:20:57.837Z,8.70
2019-03-23T04:23:29.092Z,8.74
2019-03-23T04:26:00.474Z,8.81
2019-03-23T04:28:31.781Z,8.70
2019-03-23T04:31:06.316Z,8.79
2019-03-23T04:33:50.878Z,8.76
2019-03-23T04:36:22.421Z,8.86
2019-03-23T04:38:54.057Z,8.78
2019-03-23T04:41:25.491Z,8.84
2019-03-23T04:43:57.858Z,8.87
2019-03-23T04:46:29.118Z,8.85
2019-03-23T04:49:00.463Z,8.84
2019-03-23T04:51:32.060Z,8.87
2019-03-23T04:54:03.410Z,8.91
2019-03-23T04:56:36.725Z,8.90
2019-03-23T04:59:10.143Z,8.83
2019-03-23T05:01:41.428Z,9.00
2019-03-23T05:04:17.148Z,9.02
2019-03-23T05:06:48.360Z,9.04
2019-03-23T05:09:41.982Z,9.01
2019-03-23T05:12:13.407Z,8.96
2019-03-23T05:14:44.697Z,9.05
2019-03-23T05:17:16.041Z,9.01
2019-03-23T05:19:48.753Z,8.96
2019-03-23T05:22:20.176Z,8.87
2019-03-23T05:24:51.451Z,9.01
2019-03-23T05:27:22.810Z,9.14
2019-03-23T05:30:01.251Z,9.14
2019-03-23T05:32:42.411Z,9.14
2019-03-23T05:35:13.947Z,9.19
2019-03-23T05:37:49.410Z,9.16
2019-03-23T05:40:24.173Z,9.06
2019-03-23T05:42:59.502Z,8.85
2019-03-23T05:45:33.984Z,9.12
2019-03-23T05:48:05.289Z,9.07
2019-03-23T05:50:43.852Z,9.06
2019-03-23T05:53:15.230Z,8.94
2019-03-23T05:55:46.598Z,8.91
2019-03-23T05:58:29.125Z,8.93
2019-03-23T06:01:00.260Z,9.04
2019-03-23T06:03:40.054Z,9.13
2019-03-23T06:06:11.421Z,9.20
2019-03-23T06:08:54.603Z,9.07
2019-03-23T06:11:23.947Z,9.11
2019-03-23T06:13:56.350Z,9.30
2019-03-23T06:16:29.914Z,9.16
2019-03-23T06:19:01.284Z,9.23
2019-03-23T06:21:36.947Z,9.26
2019-03-23T06:24:09.568Z,9.27
2019-03-23T06:26:40.789Z,9.29
2019-03-23T06:29:17.816Z,9.30
2019-03-23T06:31:51.253Z,9.32
2019-03-23T06:34:24.699Z,9.00
2019-03-23T06:36:56.229Z,9.22
2019-03-23T06:39:38.041Z,9.24
2019-03-23T06:42:10.456Z,9.29
2019-03-23T06:44:47.329Z,9.30
2019-03-23T06:47:22.013Z,9.40
2019-03-23T06:49:53.649Z,9.43
2019-03-23T06:52:25.057Z,9.35
2019-03-23T06:54:57.651Z,9.19
2019-03-23T06:57:29.005Z,9.33
2019-03-23T07:00:10.365Z,9.30
2019-03-23T07:02:42.054Z,9.41
2019-03-23T07:05:16.965Z,9.50
2019-03-23T07:07:48.364Z,9.52
2019-03-23T07:10:32.331Z,9.45
2019-03-23T07:13:09.626Z,9.57
2019-03-23T07:15:40.917Z,9.71
2019-03-23T07:18:12.705Z,9.65
2019-03-23T07:20:47.984Z,9.76
2019-03-23T07:23:19.359Z,9.79
2019-03-23T07:25:51.807Z,9.73
2019-03-23T07:28:23.276Z,9.78
2019-03-23T07:30:56.157Z,9.82
2019-03-23T07:33:32.282Z,9.75
2019-03-23T07:36:03.753Z,9.81
2019-03-23T07:38:35.810Z,9.75
2019-03-23T07:41:07.229Z,9.87
2019-03-23T07:43:44.234Z,9.83
2019-03-23T07:46:24.538Z,9.93
2019-03-23T07:48:55.967Z,9.95
2019-03-23T07:51:27.160Z,10.01
2019-03-23T07:53:58.787Z,10.00
2019-03-23T07:56:30.516Z,10.03
2019-03-23T07:59:13.374Z,9.96
2019-03-23T08:01:50.034Z,9.97
2019-03-23T08:04:21.535Z,10.02
2019-03-23T08:06:54.971Z,10.07
2019-03-23T08:09:37.700Z,10.12
2019-03-23T08:12:07.373Z,10.07
2019-03-23T08:14:45.545Z,9.99
2019-03-23T08:17:25.917Z,9.88
2019-03-23T08:20:04.092Z,10.00
2019-03-23T08:22:37.894Z,10.10
2019-03-23T08:25:09.222Z,10.21
2019-03-23T08:27:41.754Z,10.09
2019-03-23T08:30:13.156Z,10.04
2019-03-23T08:32:56.629Z,10.17
2019-03-23T08:35:28.357Z,10.19
2019-03-23T08:38:08.151Z,10.16
2019-03-23T08:40:51.737Z,10.14
2019-03-23T08:43:28.325Z,10.09
2019-03-23T08:45:59.701Z,10.02
2019-03-23T08:48:38.198Z,9.93
2019-03-23T08:51:11.545Z,10.11
2019-03-23T08:53:43.161Z,10.20
2019-03-23T08:56:19.482Z,10.16
2019-03-23T08:59:06.289Z,10.27
2019-03-23T09:01:38.145Z,10.34
2019-03-23T09:04:09.976Z,10.35
2019-03-23T09:06:47.476Z,10.44
2019-03-23T09:09:18.975Z,10.44
2019-03-23T09:11:50.791Z,10.43
2019-03-23T09:14:23.558Z,10.49
2019-03-23T09:16:56.223Z,10.56
2019-03-23T09:19:33.430Z,10.54
2019-03-23T09:22:05.793Z,10.50
2019-03-23T09:24:50.436Z,10.51
2019-03-23T09:27:32.359Z,10.43
2019-03-23T09:30:04.656Z,10.44
2019-03-23T09:32:36.125Z,10.34
2019-03-23T09:35:09.497Z,10.28
2019-03-23T09:37:41.832Z,10.33
2019-03-23T09:40:13.652Z,10.11
2019-03-23T09:42:51.579Z,10.33
2019-03-23T09:45:25.188Z,10.35
2019-03-23T09:48:08.400Z,10.41
2019-03-23T09:50:46.822Z,10.42
2019-03-23T09:53:39.100Z,10.49
2019-03-23T09:56:10.432Z,10.35
2019-03-23T09:58:52.368Z,10.58
2019-03-23T10:01:23.610Z,10.71
2019-03-23T10:03:54.908Z,10.79
2019-03-23T10:06:26.403Z,10.87
2019-03-23T10:08:58.377Z,10.80
2019-03-23T10:11:31.890Z,10.67
2019-03-23T10:14:03.331Z,10.85
2019-03-23T10:16:34.608Z,11.10
2019-03-23T10:19:06.069Z,11.40
2019-03-23T10:21:38.641Z,11.38
2019-03-23T10:24:10.539Z,11.44
2019-03-23T10:26:41.826Z,11.34
2019-03-23T10:29:13.538Z,11.01
2019-03-23T10:31:44.897Z,11.04
2019-03-23T10:34:16.141Z,11.18
2019-03-23T10:36:47.451Z,11.19
2019-03-23T10:39:21.920Z,11.35
2019-03-23T10:41:53.438Z,11.56
2019-03-23T10:44:24.843Z,11.79
2019-03-23T10:46:56.238Z,11.64
2019-03-23T10:49:27.788Z,11.64
2019-03-23T10:52:00.850Z,11.83
2019-03-23T10:54:32.419Z,11.98
2019-03-23T10:57:10.681Z,12.04
2019-03-23T10:59:42.124Z,12.09
2019-03-23T11:02:13.385Z,12.12
2019-03-23T11:04:44.817Z,12.17
2019-03-23T11:07:25.032Z,12.25
2019-03-23T11:09:56.320Z,12.15
2019-03-23T11:12:27.623Z,12.03
2019-03-23T11:15:16.794Z,12.12
2019-03-23T11:17:53.317Z,12.07
2019-03-23T11:20:24.599Z,11.95
2019-03-23T11:23:12.617Z,12.15
2019-03-23T11:25:43.934Z,12.05
2019-03-23T11:28:15.174Z,12.16
2019-03-23T11:30:49.023Z,12.29
2019-03-23T11:33:22.653Z,12.45
2019-03-23T11:35:58.056Z,12.47
2019-03-23T11:38:30.937Z,12.20
2019-03-23T11:41:03.591Z,12.31
2019-03-23T11:43:55.705Z,12.60
2019-03-23T11:46:27.258Z,12.61
2019-03-23T11:49:06.376Z,12.66
2019-03-23T11:51:40.023Z,12.72
2019-03-23T11:54:11.512Z,12.81
2019-03-23T11:56:43.852Z,12.84
2019-03-23T11:59:15.055Z,12.72
2019-03-23T12:01:51.671Z,12.72
2019-03-23T12:04:26.044Z,12.76
2019-03-23T12:06:58.561Z,12.59
2019-03-23T12:09:43.074Z,12.56
2019-03-23T12:12:14.482Z,12.46
2019-03-23T12:14:45.776Z,12.49
2019-03-23T12:17:18.912Z,12.49
2019-03-23T12:19:50.210Z,12.51
2019-03-23T12:22:23.016Z,12.66
2019-03-23T12:25:02.698Z,12.80
2019-03-23T12:27:39.210Z,12.59
2019-03-23T12:30:12.278Z,12.63
2019-03-23T12:32:43.595Z,12.72
2019-03-23T12:35:15.920Z,12.70
2019-03-23T12:38:16.246Z,12.69
2019-03-23T12:40:58.969Z,12.68
2019-03-23T12:43:30.407Z,12.80
2019-03-23T12:46:08.127Z,12.84
2019-03-23T12:48:39.956Z,12.83
2019-03-23T12:51:17.125Z,12.72
2019-03-23T12:53:55.208Z,12.76
2019-03-23T12:56:27.325Z,12.62
2019-03-23T12:59:09.287Z,12.55
2019-03-23T13:01:41.850Z,12.76
2019-03-23T13:04:13.691Z,12.83
2019-03-23T13:06:45.130Z,12.82
2019-03-23T13:09:18.991Z,13.03
2019-03-23T13:11:52.625Z,13.02
2019-03-23T13:14:26.640Z,12.60
2019-03-23T13:16:59.068Z,12.73
2019-03-23T13:19:32.654Z,12.90
2019-03-23T13:22:31.652Z,13.10
2019-03-23T13:25:03.257Z,12.92
2019-03-23T13:27:43.660Z,13.02
2019-03-23T13:30:15.356Z,12.97
2019-03-23T13:32:51.648Z,13.05
2019-03-23T13:35:25.022Z,12.94
2019-03-23T13:38:01.860Z,12.91
2019-03-23T13:40:36.283Z,12.99
2019-03-23T13:43:10.210Z,13.05
2019-03-23T13:45:47.625Z,13.15
2019-03-23T13:48:24.537Z,13.06
2019-03-23T13:51:04.126Z,12.78
2019-03-23T13:53:37.632Z,12.91
2019-03-23T13:56:08.479Z,13.01
2019-03-23T13:58:41.245Z,12.94
2019-03-23T14:01:21.450Z,12.85
2019-03-23T14:03:53.422Z,12.98
2019-03-23T14:06:30.156Z,13.08
2019-03-23T14:09:02.168Z,13.04
2019-03-23T14:11:38.403Z,12.98
2019-03-23T14:14:11.477Z,13.03
2019-03-23T14:16:44.249Z,12.88
2019-03-23T14:19:27.070Z,12.87
2019-03-23T14:22:00.499Z,12.92
2019-03-23T14:24:48.891Z,12.91
2019-03-23T14:27:20.167Z,12.64
2019-03-23T14:29:53.483Z,12.71
2019-03-23T14:32:26.011Z,12.78
2019-03-23T14:35:03.841Z,12.66
2019-03-23T14:37:40.378Z,12.74
2019-03-23T14:40:28.562Z,12.67
2019-03-23T14:43:05.081Z,12.62
2019-03-23T14:45:48.612Z,12.63
2019-03-23T14:48:20.981Z,12.67
2019-03-23T14:50:54.929Z,12.67
2019-03-23T14:53:30.757Z,12.68
2019-03-23T14:56:03.150Z,12.72
2019-03-23T14:58:34.661Z,12.67
2019-03-23T15:01:09.453Z,12.73
2019-03-23T15:03:52.906Z,12.73
2019-03-23T15:06:24.237Z,12.65
2019-03-23T15:09:06.742Z,12.81
2019-03-23T15:11:38.230Z,12.72
2019-03-23T15:14:09.674Z,12.67
2019-03-23T15:16:44.915Z,12.75
2019-03-23T15:19:17.068Z,12.71
2019-03-23T15:21:50.562Z,12.69
2019-03-23T15:24:23.209Z,12.79
2019-03-23T15:26:55.960Z,12.65
2019-03-23T15:29:27.350Z,12.68
2019-03-23T15:31:59.163Z,12.64
2019-03-23T15:34:30.600Z,12.62
2019-03-23T15:37:02.013Z,12.58
2019-03-23T15:39:40.511Z,12.53
2019-03-23T15:42:11.791Z,12.53
2019-03-23T15:44:45.823Z,12.57
2019-03-23T15:47:20.465Z,12.61
2019-03-23T15:49:51.895Z,12.50
2019-03-23T15:52:25.623Z,12.48
2019-03-23T15:54:57.875Z,12.58
2019-03-23T15:57:31.332Z,12.50
2019-03-23T16:00:05.343Z,12.49
2019-03-23T16:02:36.717Z,12.55
2019-03-23T16:05:09.477Z,12.59
2019-03-23T16:07:42.236Z,12.60
2019-03-23T16:10:41.390Z,12.50
2019-03-23T16:13:12.647Z,12.54
2019-03-23T16:15:44.073Z,12.46
2019-03-23T16:18:15.774Z,12.46
2019-03-23T16:20:47.070Z,12.47
2019-03-23T16:23:22.268Z,12.48
2019-03-23T16:25:56.087Z,12.40
2019-03-23T16:28:47.786Z,12.37
2019-03-23T16:31:19.097Z,12.30
2019-03-23T16:33:50.518Z,12.30
2019-03-23T16:36:22.358Z,12.33
2019-03-23T16:38:55.578Z,12.27
2019-03-23T16:41:27.816Z,12.26
2019-03-23T16:44:02.167Z,12.36
2019-03-23T16:46:35.674Z,12.39
2019-03-23T16:49:18.772Z,12.43
2019-03-23T16:51:51.140Z,12.47
2019-03-23T16:54:22.371Z,12.52
2019-03-23T16:56:53.714Z,12.54
2019-03-23T16:59:25.079Z,12.50
2019-03-23T17:01:57.907Z,12.51
2019-03-23T17:04:30.159Z,12.63
2019-03-23T17:07:01.434Z,12.50
2019-03-23T17:09:33.298Z,12.48
2019-03-23T17:12:12.144Z,12.45
2019-03-23T17:14:43.388Z,12.44
2019-03-23T17:17:18.801Z,12.45
2019-03-23T17:20:03.447Z,12.45
2019-03-23T17:22:40.288Z,12.40
2019-03-23T17:25:11.517Z,12.37
2019-03-23T17:27:45.091Z,12.38
2019-03-23T17:30:19.569Z,12.39
2019-03-23T17:32:50.587Z,12.29
2019-03-23T17:35:24.163Z,12.27
2019-03-23T17:37:55.605Z,12.20
2019-03-23T17:40:32.771Z,12.25
2019-03-23T17:43:06.203Z,12.20
2019-03-23T17:45:38.081Z,12.14
2019-03-23T17:48:09.583Z,12.10
2019-03-23T17:50:41.812Z,11.89
2019-03-23T17:53:13.237Z,11.79
2019-03-23T17:55:46.005Z,11.71
2019-03-23T17:58:24.622Z,11.65
2019-03-23T18:01:19.335Z,11.68
2019-03-23T18:03:52.603Z,11.59
2019-03-23T18:06:23.913Z,11.66
2019-03-23T18:08:56.310Z,11.73
2019-03-23T18:11:33.294Z,11.74
2019-03-23T18:14:04.734Z,11.74
2019-03-23T18:16:36.201Z,11.86
2019-03-23T18:19:20.598Z,11.83
2019-03-23T18:22:03.151Z,11.80
2019-03-23T18:24:38.116Z,11.68
2019-03-23T18:27:09.740Z,11.61
2019-03-23T18:29:43.026Z,11.51
2019-03-23T18:32:15.408Z,11.33
2019-03-23T18:34:47.088Z,11.37
2019-03-23T18:37:20.908Z,11.31
2019-03-23T18:40:01.325Z,11.30
2019-03-23T18:42:34.980Z,11.21
2019-03-23T18:45:07.436Z,11.20
2019-03-23T18:47:38.769Z,11.24
2019-03-23T18:50:17.134Z,11.20
2019-03-23T18:52:50.383Z,11.18
2019-03-23T18:55:24.933Z,11.28
2019-03-23T18:57:57.950Z,11.29
2019-03-23T19:00:43.292Z,11.29
2019-03-23T19:03:14.497Z,11.33
2019-03-23T19:05:50.361Z,11.28
2019-03-23T19:08:24.948Z,11.32
2019-03-23T19:10:56.190Z,11.24
2019-03-23T19:13:37.583Z,11.24
2019-03-23T19:16:01.073Z,11.28
2019-03-23T19:18:34.599Z,11.18
2019-03-23T19:21:11.080Z,11.29
2019-03-23T19:23:48.580Z,11.17
2019-03-23T19:26:20.004Z,11.18
2019-03-23T19:28:53.009Z,11.11
2019-03-23T19:31:26.393Z,11.05
2019-03-23T19:34:02.878Z,11.17
2019-03-23T19:36:34.106Z,11.22
2019-03-23T19:39:08.820Z,11.20
2019-03-23T19:41:41.191Z,11.22
2019-03-23T19:44:15.719Z,11.15
2019-03-23T19:46:47.304Z,11.19
2019-03-23T19:49:20.145Z,11.17
2019-03-23T19:51:51.581Z,11.15
2019-03-23T19:54:23.858Z,11.11
2019-03-23T19:57:00.692Z,11.04
2019-03-23T19:59:39.378Z,11.15
2019-03-23T20:02:11.190Z,11.11
2019-03-23T20:04:42.562Z,11.20
2019-03-23T20:07:14.757Z,11.12
2019-03-23T20:09:46.028Z,11.11
2019-03-23T20:12:20.874Z,11.14
2019-03-23T20:14:52.674Z,11.18
2019-03-23T20:17:28.072Z,11.27
2019-03-23T20:20:00.721Z,11.28
2019-03-23T20:22:34.621Z,11.25
2019-03-23T20:25:06.875Z,11.21
2019-03-23T20:27:45.345Z,11.16
2019-03-23T20:30:22.794Z,11.20
2019-03-23T20:33:06.050Z,11.23
2019-03-23T20:35:37.925Z,11.24
2019-03-23T20:38:09.495Z,11.25
2019-03-23T20:40:44.007Z,11.25
2019-03-23T20:43:16.478Z,11.19
2019-03-23T20:45:48.569Z,11.12
2019-03-23T20:48:23.645Z,11.14
2019-03-23T20:50:56.039Z,11.13
2019-03-23T20:53:38.137Z,11.18
2019-03-23T20:56:10.758Z,11.13
2019-03-23T20:58:43.477Z,11.17
2019-03-23T21:01:14.798Z,11.10
2019-03-23T21:03:48.254Z,11.15
2019-03-23T21:06:20.749Z,11.18
2019-03-23T21:09:08.419Z,11.00
2019-03-23T21:11:40.302Z,11.14
2019-03-23T21:14:20.657Z,11.00
2019-03-23T21:16:56.156Z,10.98
2019-03-23T21:19:34.991Z,10.95
2019-03-23T21:22:06.693Z,10.89
2019-03-23T21:24:38.360Z,10.92
2019-03-23T21:27:11.889Z,10.94
2019-03-23T21:29:44.557Z,11.01
2019-03-23T21:32:35.319Z,11.03
2019-03-23T21:35:07.687Z,10.82
2019-03-23T21:37:40.629Z,10.57
2019-03-23T21:40:17.418Z,10.75
2019-03-23T21:42:49.809Z,10.53
2019-03-23T21:45:22.182Z,10.60
2019-03-23T21:47:55.602Z,10.71
2019-03-23T21:50:28.764Z,10.71
2019-03-23T21:53:02.131Z,10.71
2019-03-23T21:55:36.314Z,10.68
2019-03-23T21:58:08.563Z,10.56
2019-03-23T22:00:42.414Z,10.68
2019-03-23T22:03:16.175Z,10.79
2019-03-23T22:05:50.373Z,10.74
2019-03-23T22:08:28.392Z,10.81
2019-03-23T22:11:01.210Z,10.66
2019-03-23T22:13:34.216Z,10.76
2019-03-23T22:16:06.954Z,10.82
2019-03-23T22:18:39.605Z,10.90
2019-03-23T22:21:11.381Z,10.91
2019-03-23T22:23:50.829Z,10.92
2019-03-23T22:26:34.349Z,11.02
2019-03-23T22:29:10.509Z,10.88
2019-03-23T22:31:52.643Z,10.86
2019-03-23T22:34:27.899Z,10.85
2019-03-23T22:36:59.156Z,10.79
2019-03-23T22:39:30.411Z,10.82
2019-03-23T22:42:01.775Z,10.85
2019-03-23T22:44:40.259Z,10.76
2019-03-23T22:47:11.489Z,10.74
2019-03-23T22:49:48.412Z,10.77
2019-03-23T22:52:20.013Z,10.88
2019-03-23T22:54:51.836Z,10.78
2019-03-23T22:57:23.035Z,10.75
2019-03-23T22:59:54.739Z,10.80
2019-03-23T23:02:27.133Z,10.73
2019-03-23T23:04:59.289Z,10.69
2019-03-23T23:07:30.695Z,10.67
2019-03-23T23:10:02.004Z,10.55
2019-03-23T23:12:33.271Z,10.61
2019-03-23T23:15:05.881Z,10.59
2019-03-23T23:17:39.200Z,10.64
2019-03-23T23:20:12.447Z,10.55
2019-03-23T23:22:49.975Z,10.53
2019-03-23T23:25:22.390Z,10.49
2019-03-23T23:28:03.521Z,10.44
2019-03-23T23:30:34.758Z,10.44
2019-03-23T23:33:13.314Z,10.25
2019-03-23T23:35:45.894Z,10.11
2019-03-23T23:38:21.195Z,10.15
2019-03-23T23:40:52.672Z,10.08
2019-03-23T23:43:47.192Z,10.03
2019-03-23T23:46:18.728Z,10.06
2019-03-23T23:49:13.765Z,9.92
2019-03-23T23:51:50.061Z,9.82
2019-03-23T23:54:31.824Z,9.82
2019-03-23T23:57:03.162Z,9.81
2019-03-23T23:59:34.335Z,9.81
